createdAt,value
2018-12-29T00:00:46.806Z,0.00
2018-12-29T00:01:46.784Z,0.00
2018-12-29T00:02:46.793Z,0.00
2018-12-29T00:03:46.790Z,0.00
2018-12-29T00:04:46.783Z,0.00
2018-12-29T00:05:46.742Z,0.00
2018-12-29T00:06:46.731Z,0.00
2018-12-29T00:07:46.754Z,0.00
2018-12-29T00:08:46.731Z,0.00
2018-12-29T00:09:46.705Z,0.00
2018-12-29T00:10:46.692Z,0.00
2018-12-29T00:11:46.711Z,0.00
2018-12-29T00:12:46.666Z,0.00
2018-12-29T00:13:46.687Z,0.00
2018-12-29T00:14:46.650Z,0.00
2018-12-29T00:15:46.674Z,0.00
2018-12-29T00:16:46.623Z,0.00
2018-12-29T00:17:47.993Z,0.00
2018-12-29T00:18:46.621Z,0.00
2018-12-29T00:19:46.619Z,0.00
2018-12-29T00:20:46.591Z,0.00
2018-12-29T00:21:46.607Z,0.00
2018-12-29T00:22:46.568Z,0.00
2018-12-29T00:23:46.566Z,0.00
2018-12-29T00:24:46.539Z,0.00
2018-12-29T00:25:46.532Z,0.00
2018-12-29T00:26:46.572Z,0.00
2018-12-29T00:27:46.506Z,0.00
2018-12-29T00:28:46.535Z,0.00
2018-12-29T00:29:46.501Z,0.00
2018-12-29T00:30:46.485Z,0.00
2018-12-29T00:31:46.464Z,0.00
2018-12-29T00:32:46.457Z,0.00
2018-12-29T00:33:46.460Z,0.00
2018-12-29T00:34:46.449Z,0.00
2018-12-29T00:35:46.438Z,0.00
2018-12-29T00:36:46.411Z,0.00
2018-12-29T00:37:46.399Z,0.00
2018-12-29T00:38:46.403Z,0.00
2018-12-29T00:39:46.380Z,0.00
2018-12-29T00:40:46.384Z,0.00
2018-12-29T00:41:46.376Z,0.00
2018-12-29T00:42:46.346Z,0.00
2018-12-29T00:43:46.368Z,0.00
2018-12-29T00:44:46.326Z,0.00
2018-12-29T00:45:46.317Z,0.00
2018-12-29T00:46:46.336Z,0.00
2018-12-29T00:47:46.303Z,0.00
2018-12-29T00:48:46.299Z,0.00
2018-12-29T00:49:46.294Z,0.00
2018-12-29T00:50:46.262Z,0.00
2018-12-29T00:51:46.266Z,0.00
2018-12-29T00:52:46.266Z,0.00
2018-12-29T00:53:46.258Z,0.00
2018-12-29T00:54:46.239Z,0.00
2018-12-29T00:55:46.235Z,0.00
2018-12-29T00:56:46.222Z,0.00
2018-12-29T00:57:46.187Z,0.00
2018-12-29T00:58:46.174Z,0.00
2018-12-29T00:59:46.204Z,0.00
2018-12-29T01:00:46.166Z,0.00
2018-12-29T01:01:46.149Z,0.00
2018-12-29T01:02:46.188Z,0.00
2018-12-29T01:03:46.168Z,0.00
2018-12-29T01:04:46.133Z,0.00
2018-12-29T01:05:46.105Z,0.00
2018-12-29T01:06:46.093Z,0.00
2018-12-29T01:07:46.125Z,0.00
2018-12-29T01:08:46.092Z,0.00
2018-12-29T01:09:46.084Z,0.00
2018-12-29T01:10:46.049Z,0.00
2018-12-29T01:11:46.039Z,0.00
2018-12-29T01:12:46.077Z,0.00
2018-12-29T01:13:46.015Z,0.00
2018-12-29T01:14:46.020Z,0.00
2018-12-29T01:15:46.021Z,0.00
2018-12-29T01:16:46.010Z,0.00
2018-12-29T01:17:45.977Z,0.00
2018-12-29T01:18:45.971Z,0.00
2018-12-29T01:19:45.968Z,0.00
2018-12-29T01:20:45.939Z,0.00
2018-12-29T01:21:45.931Z,0.00
2018-12-29T01:22:45.929Z,0.00
2018-12-29T01:23:45.917Z,0.00
2018-12-29T01:24:45.910Z,0.00
2018-12-29T01:25:45.928Z,0.00
2018-12-29T01:26:45.921Z,0.00
2018-12-29T01:27:45.866Z,0.00
2018-12-29T01:28:45.857Z,0.00
2018-12-29T01:29:45.860Z,0.00
2018-12-29T01:30:45.834Z,0.00
2018-12-29T01:31:45.856Z,0.00
2018-12-29T01:32:45.812Z,0.00
2018-12-29T01:33:45.854Z,0.00
2018-12-29T01:34:45.814Z,0.00
2018-12-29T01:35:45.803Z,0.00
2018-12-29T01:36:45.771Z,0.00
2018-12-29T01:37:45.764Z,0.00
2018-12-29T01:38:45.769Z,0.00
2018-12-29T01:39:45.760Z,0.00
2018-12-29T01:40:45.730Z,0.00
2018-12-29T01:41:45.737Z,0.00
2018-12-29T01:42:45.705Z,0.00
2018-12-29T01:43:45.737Z,0.00
2018-12-29T01:44:45.698Z,0.00
2018-12-29T01:45:45.699Z,0.00
2018-12-29T01:46:45.666Z,0.00
2018-12-29T01:47:47.019Z,0.00
2018-12-29T01:48:45.652Z,0.00
2018-12-29T01:49:45.651Z,0.00
2018-12-29T01:50:45.650Z,0.00
2018-12-29T01:51:45.610Z,0.00
2018-12-29T01:52:45.599Z,0.00
2018-12-29T01:53:45.604Z,0.00
2018-12-29T01:54:45.593Z,0.00
2018-12-29T01:55:45.577Z,0.00
2018-12-29T01:56:45.557Z,0.00
2018-12-29T01:57:45.544Z,0.00
2018-12-29T01:58:45.535Z,0.00
2018-12-29T01:59:45.552Z,0.00
2018-12-29T02:00:45.562Z,0.00
2018-12-29T02:01:45.503Z,0.00
2018-12-29T02:02:45.492Z,0.00
2018-12-29T02:03:45.480Z,0.00
2018-12-29T02:04:45.484Z,0.00
2018-12-29T02:05:45.460Z,0.00
2018-12-29T02:06:45.449Z,0.00
2018-12-29T02:07:45.441Z,0.00
2018-12-29T02:08:45.428Z,0.00
2018-12-29T02:09:45.445Z,0.00
2018-12-29T02:10:45.450Z,0.00
2018-12-29T02:11:45.415Z,0.00
2018-12-29T02:12:45.387Z,0.00
2018-12-29T02:13:45.377Z,0.00
2018-12-29T02:14:45.369Z,0.00
2018-12-29T02:15:45.372Z,0.00
2018-12-29T02:16:45.371Z,0.00
2018-12-29T02:17:45.346Z,0.00
2018-12-29T02:18:45.327Z,0.00
2018-12-29T02:19:45.333Z,0.00
2018-12-29T02:20:45.317Z,0.00
2018-12-29T02:21:45.290Z,0.00
2018-12-29T02:22:45.299Z,0.00
2018-12-29T02:23:45.267Z,0.00
2018-12-29T02:24:45.271Z,0.00
2018-12-29T02:25:45.268Z,0.00
2018-12-29T02:26:45.241Z,0.00
2018-12-29T02:27:45.227Z,0.00
2018-12-29T02:28:45.220Z,0.00
2018-12-29T02:29:45.257Z,0.00
2018-12-29T02:30:45.209Z,0.00
2018-12-29T02:31:45.205Z,0.00
2018-12-29T02:32:45.179Z,0.00
2018-12-29T02:33:45.163Z,0.00
2018-12-29T02:34:45.205Z,0.00
2018-12-29T02:35:45.160Z,0.00
2018-12-29T02:36:45.128Z,0.00
2018-12-29T02:37:45.122Z,0.00
2018-12-29T02:38:45.109Z,0.00
2018-12-29T02:39:45.099Z,0.00
2018-12-29T02:40:45.108Z,0.00
2018-12-29T02:41:45.122Z,0.00
2018-12-29T02:42:45.073Z,0.00
2018-12-29T02:43:45.057Z,0.00
2018-12-29T02:44:45.047Z,0.00
2018-12-29T02:45:45.050Z,0.00
2018-12-29T02:46:45.050Z,0.00
2018-12-29T02:47:45.017Z,0.00
2018-12-29T02:48:45.107Z,0.00
2018-12-29T02:49:45.007Z,0.00
2018-12-29T02:50:44.998Z,0.00
2018-12-29T02:51:44.967Z,0.00
2018-12-29T02:52:44.973Z,0.00
2018-12-29T02:53:44.955Z,0.00
2018-12-29T02:54:44.936Z,0.00
2018-12-29T02:55:45.022Z,0.00
2018-12-29T02:56:44.925Z,0.00
2018-12-29T02:57:44.915Z,0.00
2018-12-29T02:58:44.928Z,0.00
2018-12-29T02:59:44.903Z,0.00
2018-12-29T03:00:44.887Z,0.00
2018-12-29T03:01:44.877Z,0.00
2018-12-29T03:02:44.850Z,0.00
2018-12-29T03:03:44.843Z,0.00
2018-12-29T03:04:44.888Z,0.00
2018-12-29T03:05:44.849Z,0.00
2018-12-29T03:06:44.808Z,0.00
2018-12-29T03:07:44.857Z,0.00
2018-12-29T03:08:44.809Z,0.00
2018-12-29T03:09:44.789Z,0.00
2018-12-29T03:10:44.781Z,0.00
2018-12-29T03:11:44.798Z,0.00
2018-12-29T03:12:44.749Z,0.00
2018-12-29T03:13:44.759Z,0.00
2018-12-29T03:14:44.731Z,0.00
2018-12-29T03:15:44.718Z,0.00
2018-12-29T03:16:44.732Z,0.00
2018-12-29T03:17:44.698Z,0.00
2018-12-29T03:18:44.682Z,0.00
2018-12-29T03:19:44.675Z,0.00
2018-12-29T03:20:44.687Z,0.00
2018-12-29T03:21:44.666Z,0.00
2018-12-29T03:22:44.666Z,0.00
2018-12-29T03:23:44.667Z,0.00
2018-12-29T03:24:44.618Z,0.00
2018-12-29T03:25:44.608Z,0.00
2018-12-29T03:26:44.612Z,0.00
2018-12-29T03:27:44.608Z,0.00
2018-12-29T03:28:44.575Z,0.00
2018-12-29T03:29:44.575Z,0.00
2018-12-29T03:30:44.558Z,0.00
2018-12-29T03:31:44.564Z,0.00
2018-12-29T03:32:44.537Z,0.00
2018-12-29T03:33:44.528Z,0.00
2018-12-29T03:34:44.562Z,0.00
2018-12-29T03:35:44.499Z,0.00
2018-12-29T03:36:44.526Z,0.00
2018-12-29T03:37:44.479Z,0.00
2018-12-29T03:38:44.468Z,0.00
2018-12-29T03:39:44.457Z,0.00
2018-12-29T03:40:44.452Z,0.00
2018-12-29T03:41:44.448Z,0.00
2018-12-29T03:42:44.425Z,0.00
2018-12-29T03:43:44.411Z,0.00
2018-12-29T03:44:44.404Z,0.00
2018-12-29T03:45:49.042Z,0.00
2018-12-29T03:46:45.431Z,0.00
2018-12-29T03:47:44.371Z,0.00
2018-12-29T03:48:44.362Z,0.00
2018-12-29T03:49:44.383Z,0.00
2018-12-29T03:50:44.341Z,0.00
2018-12-29T03:51:44.343Z,0.00
2018-12-29T03:52:44.317Z,0.00
2018-12-29T03:53:44.340Z,0.00
2018-12-29T03:54:44.325Z,0.00
2018-12-29T03:55:44.293Z,0.00
2018-12-29T03:56:44.296Z,0.00
2018-12-29T03:57:44.264Z,0.00
2018-12-29T03:58:44.254Z,0.00
2018-12-29T03:59:44.256Z,0.00
2018-12-29T04:00:44.254Z,0.00
2018-12-29T04:01:44.241Z,0.00
2018-12-29T04:02:44.213Z,0.00
2018-12-29T04:03:44.235Z,0.00
2018-12-29T04:04:44.201Z,0.00
2018-12-29T04:05:44.197Z,0.00
2018-12-29T04:06:44.207Z,0.00
2018-12-29T04:07:44.161Z,0.00
2018-12-29T04:08:44.180Z,0.00
2018-12-29T04:09:44.146Z,0.00
2018-12-29T04:10:44.125Z,0.00
2018-12-29T04:11:44.155Z,0.00
2018-12-29T04:12:44.120Z,0.00
2018-12-29T04:13:44.094Z,0.00
2018-12-29T04:14:44.126Z,0.00
2018-12-29T04:15:44.084Z,0.00
2018-12-29T04:16:44.090Z,0.00
2018-12-29T04:17:44.067Z,0.00
2018-12-29T04:18:44.087Z,0.00
2018-12-29T04:19:44.051Z,0.00
2018-12-29T04:20:44.023Z,0.00
2018-12-29T04:21:44.016Z,0.00
2018-12-29T04:22:44.015Z,0.00
2018-12-29T04:23:44.041Z,0.00
2018-12-29T04:24:43.983Z,0.00
2018-12-29T04:25:43.999Z,0.00
2018-12-29T04:26:43.956Z,0.00
2018-12-29T04:27:43.960Z,0.00
2018-12-29T04:28:43.934Z,0.00
2018-12-29T04:29:43.926Z,0.00
2018-12-29T04:30:43.930Z,0.00
2018-12-29T04:31:43.908Z,0.00
2018-12-29T04:32:43.928Z,0.00
2018-12-29T04:33:43.891Z,0.00
2018-12-29T04:34:43.887Z,0.00
2018-12-29T04:35:43.882Z,0.00
2018-12-29T04:36:43.848Z,0.00
2018-12-29T04:37:43.855Z,0.00
2018-12-29T04:38:43.852Z,0.00
2018-12-29T04:39:43.832Z,0.00
2018-12-29T04:40:43.808Z,0.00
2018-12-29T04:41:43.801Z,0.00
2018-12-29T04:42:43.839Z,0.00
2018-12-29T04:43:43.775Z,0.00
2018-12-29T04:44:43.766Z,0.00
2018-12-29T04:45:43.777Z,0.00
2018-12-29T04:46:43.752Z,0.00
2018-12-29T04:47:43.752Z,0.00
2018-12-29T04:48:43.727Z,0.00
2018-12-29T04:49:43.724Z,0.00
2018-12-29T04:50:43.699Z,0.00
2018-12-29T04:51:43.688Z,0.00
2018-12-29T04:52:43.695Z,0.00
2018-12-29T04:53:43.744Z,0.00
2018-12-29T04:54:43.659Z,0.00
2018-12-29T04:55:43.687Z,0.00
2018-12-29T04:56:43.644Z,0.00
2018-12-29T04:57:43.664Z,0.00
2018-12-29T04:58:43.616Z,0.00
2018-12-29T04:59:43.604Z,0.00
2018-12-29T05:00:43.608Z,0.00
2018-12-29T05:01:43.593Z,0.00
2018-12-29T05:02:43.571Z,0.00
2018-12-29T05:03:43.607Z,0.00
2018-12-29T05:04:43.565Z,0.00
2018-12-29T05:05:43.541Z,0.00
2018-12-29T05:06:43.530Z,0.00
2018-12-29T05:07:43.519Z,0.00
2018-12-29T05:08:43.551Z,0.00
2018-12-29T05:09:43.496Z,0.00
2018-12-29T05:10:43.489Z,0.00
2018-12-29T05:11:43.512Z,0.00
2018-12-29T05:12:43.463Z,0.00
2018-12-29T05:13:43.475Z,0.00
2018-12-29T05:14:43.446Z,0.00
2018-12-29T05:15:43.437Z,0.00
2018-12-29T05:16:43.478Z,0.00
2018-12-29T05:17:43.416Z,0.00
2018-12-29T05:18:43.432Z,0.00
2018-12-29T05:19:43.397Z,0.00
2018-12-29T05:20:43.379Z,0.00
2018-12-29T05:21:43.368Z,0.00
2018-12-29T05:22:43.356Z,0.00
2018-12-29T05:23:43.364Z,0.00
2018-12-29T05:24:43.337Z,0.00
2018-12-29T05:25:43.327Z,0.00
2018-12-29T05:26:43.320Z,0.00
2018-12-29T05:27:43.307Z,0.00
2018-12-29T05:28:43.375Z,0.00
2018-12-29T05:29:43.290Z,0.00
2018-12-29T05:30:43.291Z,0.00
2018-12-29T05:31:43.279Z,0.00
2018-12-29T05:32:43.254Z,0.00
2018-12-29T05:33:43.256Z,0.00
2018-12-29T05:34:43.229Z,0.00
2018-12-29T05:35:43.252Z,0.00
2018-12-29T05:36:43.206Z,0.00
2018-12-29T05:37:43.214Z,0.00
2018-12-29T05:38:43.202Z,0.00
2018-12-29T05:39:43.197Z,0.00
2018-12-29T05:40:43.164Z,0.00
2018-12-29T05:41:43.158Z,0.00
2018-12-29T05:42:43.170Z,0.00
2018-12-29T05:43:43.201Z,0.00
2018-12-29T05:44:43.125Z,0.00
2018-12-29T05:45:43.113Z,0.00
2018-12-29T05:46:43.102Z,0.00
2018-12-29T05:47:43.092Z,0.00
2018-12-29T05:48:43.117Z,0.00
2018-12-29T05:49:43.077Z,0.00
2018-12-29T05:50:43.065Z,0.00
2018-12-29T05:51:43.049Z,0.00
2018-12-29T05:52:43.081Z,0.00
2018-12-29T05:53:43.040Z,0.00
2018-12-29T05:54:43.035Z,0.00
2018-12-29T05:55:43.009Z,0.00
2018-12-29T05:56:43.005Z,0.00
2018-12-29T05:57:42.982Z,0.00
2018-12-29T05:58:42.994Z,0.00
2018-12-29T05:59:43.011Z,0.00
2018-12-29T06:00:42.952Z,0.00
2018-12-29T06:01:42.955Z,0.00
2018-12-29T06:02:42.935Z,0.00
2018-12-29T06:03:42.937Z,0.00
2018-12-29T06:04:42.909Z,0.00
2018-12-29T06:05:42.937Z,0.00
2018-12-29T06:06:42.889Z,0.00
2018-12-29T06:07:42.886Z,0.00
2018-12-29T06:08:42.880Z,0.00
2018-12-29T06:09:42.885Z,0.00
2018-12-29T06:10:42.845Z,0.00
2018-12-29T06:11:42.839Z,0.00
2018-12-29T06:12:42.854Z,0.00
2018-12-29T06:13:42.827Z,0.00
2018-12-29T06:14:42.804Z,0.00
2018-12-29T06:15:42.802Z,0.00
2018-12-29T06:16:42.781Z,0.00
2018-12-29T06:17:42.770Z,0.00
2018-12-29T06:18:42.775Z,0.00
2018-12-29T06:19:42.784Z,0.00
2018-12-29T06:20:42.740Z,0.00
2018-12-29T06:21:42.730Z,0.00
2018-12-29T06:22:42.727Z,0.00
2018-12-29T06:23:42.722Z,0.00
2018-12-29T06:24:42.730Z,0.00
2018-12-29T06:25:42.687Z,0.00
2018-12-29T06:26:42.682Z,0.00
2018-12-29T06:27:42.744Z,0.00
2018-12-29T06:28:42.677Z,0.00
2018-12-29T06:29:42.644Z,0.00
2018-12-29T06:30:42.638Z,0.00
2018-12-29T06:31:42.625Z,0.00
2018-12-29T06:32:42.611Z,0.00
2018-12-29T06:33:42.638Z,0.00
2018-12-29T06:34:42.595Z,0.00
2018-12-29T06:35:42.584Z,0.00
2018-12-29T06:36:42.567Z,0.00
2018-12-29T06:37:42.567Z,0.00
2018-12-29T06:38:42.564Z,0.00
2018-12-29T06:39:42.535Z,0.00
2018-12-29T06:40:42.532Z,0.00
2018-12-29T06:41:42.561Z,0.00
2018-12-29T06:42:42.519Z,0.00
2018-12-29T06:43:42.511Z,0.00
2018-12-29T06:44:42.486Z,0.00
2018-12-29T06:45:42.475Z,0.00
2018-12-29T06:46:42.460Z,0.00
2018-12-29T06:47:42.495Z,0.00
2018-12-29T06:48:42.476Z,0.00
2018-12-29T06:49:42.470Z,0.00
2018-12-29T06:50:42.432Z,0.00
2018-12-29T06:51:42.424Z,0.00
2018-12-29T06:52:42.401Z,0.00
2018-12-29T06:53:42.406Z,0.00
2018-12-29T06:54:42.378Z,0.00
2018-12-29T06:55:42.366Z,0.00
2018-12-29T06:56:42.358Z,0.00
2018-12-29T06:57:42.386Z,0.00
2018-12-29T06:58:42.362Z,0.00
2018-12-29T06:59:42.322Z,0.00
2018-12-29T07:00:42.320Z,0.00
2018-12-29T07:01:42.305Z,0.00
2018-12-29T07:02:42.290Z,0.00
2018-12-29T07:03:42.282Z,0.00
2018-12-29T07:04:42.289Z,0.00
2018-12-29T07:05:42.270Z,0.00
2018-12-29T07:06:42.248Z,0.00
2018-12-29T07:07:42.241Z,0.00
2018-12-29T07:08:42.226Z,0.00
2018-12-29T07:09:42.246Z,0.00
2018-12-29T07:10:42.244Z,0.00
2018-12-29T07:11:42.201Z,0.00
2018-12-29T07:12:42.211Z,0.00
2018-12-29T07:13:42.199Z,0.00
2018-12-29T07:14:42.181Z,0.00
2018-12-29T07:15:42.153Z,0.00
2018-12-29T07:16:42.601Z,0.00
2018-12-29T07:17:42.130Z,5.62
2018-12-29T07:18:42.131Z,5.62
2018-12-29T07:19:42.123Z,5.62
2018-12-29T07:20:42.117Z,5.62
2018-12-29T07:21:42.088Z,5.62
2018-12-29T07:22:42.130Z,5.62
2018-12-29T07:23:42.075Z,5.62
2018-12-29T07:24:42.080Z,5.62
2018-12-29T07:25:42.047Z,5.62
2018-12-29T07:26:42.040Z,5.62
2018-12-29T07:27:42.038Z,11.25
2018-12-29T07:28:42.016Z,11.25
2018-12-29T07:29:42.031Z,11.25
2018-12-29T07:30:41.992Z,11.25
2018-12-29T07:31:42.026Z,11.25
2018-12-29T07:32:41.972Z,11.25
2018-12-29T07:33:41.958Z,11.25
2018-12-29T07:34:41.967Z,16.88
2018-12-29T07:35:41.967Z,16.88
2018-12-29T07:36:41.928Z,16.88
2018-12-29T07:37:41.920Z,16.88
2018-12-29T07:38:41.913Z,16.88
2018-12-29T07:39:41.911Z,22.50
2018-12-29T07:40:41.888Z,22.50
2018-12-29T07:41:41.877Z,22.50
2018-12-29T07:42:41.869Z,22.50
2018-12-29T07:43:41.850Z,22.50
2018-12-29T07:44:41.881Z,22.50
2018-12-29T07:45:41.836Z,22.50
2018-12-29T07:46:41.823Z,28.12
2018-12-29T07:47:41.815Z,28.12
2018-12-29T07:48:41.799Z,28.12
2018-12-29T07:49:41.829Z,28.12
2018-12-29T07:50:41.779Z,28.12
2018-12-29T07:51:41.804Z,28.12
2018-12-29T07:52:41.760Z,33.75
2018-12-29T07:53:41.784Z,33.75
2018-12-29T07:54:41.752Z,33.75
2018-12-29T07:55:41.723Z,33.75
2018-12-29T07:56:41.749Z,33.75
2018-12-29T07:57:41.715Z,39.38
2018-12-29T07:58:41.697Z,39.38
2018-12-29T07:59:41.736Z,39.38
2018-12-29T08:00:41.671Z,39.38
2018-12-29T08:01:41.669Z,39.38
2018-12-29T08:02:41.668Z,45.00
2018-12-29T08:03:41.638Z,45.00
2018-12-29T08:04:41.654Z,45.00
2018-12-29T08:05:41.618Z,45.00
2018-12-29T08:06:41.608Z,45.00
2018-12-29T08:07:41.603Z,45.00
2018-12-29T08:08:41.583Z,45.00
2018-12-29T08:09:41.592Z,45.00
2018-12-29T08:10:41.572Z,50.62
2018-12-29T08:11:41.571Z,50.62
2018-12-29T08:12:41.545Z,50.62
2018-12-29T08:13:41.529Z,50.62
2018-12-29T08:14:41.595Z,56.25
2018-12-29T08:15:41.543Z,56.25
2018-12-29T08:16:41.499Z,56.25
2018-12-29T08:17:41.486Z,56.25
2018-12-29T08:18:41.480Z,56.25
2018-12-29T08:19:41.466Z,56.25
2018-12-29T08:20:41.524Z,61.88
2018-12-29T08:21:41.446Z,61.88
2018-12-29T08:22:41.441Z,61.88
2018-12-29T08:23:41.443Z,61.88
2018-12-29T08:24:41.413Z,67.50
2018-12-29T08:25:41.426Z,67.50
2018-12-29T08:26:41.390Z,67.50
2018-12-29T08:27:41.381Z,67.50
2018-12-29T08:28:41.429Z,67.50
2018-12-29T08:29:41.360Z,67.50
2018-12-29T08:30:41.366Z,73.12
2018-12-29T08:31:41.359Z,73.12
2018-12-29T08:32:41.328Z,73.12
2018-12-29T08:33:41.351Z,73.12
2018-12-29T08:34:41.310Z,78.75
2018-12-29T08:35:41.308Z,78.75
2018-12-29T08:36:41.285Z,84.38
2018-12-29T08:37:41.283Z,84.38
2018-12-29T08:38:41.266Z,84.38
2018-12-29T08:39:41.280Z,84.38
2018-12-29T08:40:41.277Z,84.38
2018-12-29T08:41:41.231Z,84.38
2018-12-29T08:42:41.239Z,84.38
2018-12-29T08:43:41.229Z,84.38
2018-12-29T08:44:41.199Z,84.38
2018-12-29T08:45:41.208Z,78.75
2018-12-29T08:46:41.195Z,78.75
2018-12-29T08:47:41.200Z,78.75
2018-12-29T08:48:41.157Z,84.38
2018-12-29T08:49:41.403Z,90.00
2018-12-29T08:50:41.149Z,90.00
2018-12-29T08:51:41.145Z,95.62
2018-12-29T08:52:41.114Z,101.25
2018-12-29T08:53:41.108Z,101.25
2018-12-29T08:54:41.129Z,106.88
2018-12-29T08:55:41.094Z,112.50
2018-12-29T08:56:41.068Z,112.50
2018-12-29T08:57:41.062Z,112.50
2018-12-29T08:58:41.070Z,112.50
2018-12-29T08:59:41.039Z,118.12
2018-12-29T09:00:41.043Z,123.75
2018-12-29T09:01:41.033Z,129.38
2018-12-29T09:02:41.006Z,129.38
2018-12-29T09:03:40.994Z,129.38
2018-12-29T09:04:41.020Z,135.00
2018-12-29T09:05:40.993Z,135.00
2018-12-29T09:06:40.967Z,140.62
2018-12-29T09:07:40.958Z,140.62
2018-12-29T09:08:42.195Z,146.25
2018-12-29T09:09:40.932Z,151.88
2018-12-29T09:10:40.935Z,157.50
2018-12-29T09:11:40.955Z,157.50
2018-12-29T09:12:40.904Z,163.12
2018-12-29T09:13:40.908Z,168.75
2018-12-29T09:14:40.885Z,174.38
2018-12-29T09:15:40.892Z,174.38
2018-12-29T09:16:40.857Z,180.00
2018-12-29T09:17:40.850Z,185.62
2018-12-29T09:18:40.900Z,185.62
2018-12-29T09:19:40.825Z,185.62
2018-12-29T09:20:40.834Z,185.62
2018-12-29T09:21:40.834Z,180.00
2018-12-29T09:22:40.793Z,180.00
2018-12-29T09:23:40.785Z,180.00
2018-12-29T09:24:40.790Z,180.00
2018-12-29T09:25:40.788Z,180.00
2018-12-29T09:26:40.756Z,180.00
2018-12-29T09:27:40.787Z,174.38
2018-12-29T09:28:40.728Z,168.75
2018-12-29T09:29:40.720Z,163.12
2018-12-29T09:30:40.742Z,157.50
2018-12-29T09:31:40.748Z,163.12
2018-12-29T09:32:40.686Z,168.75
2018-12-29T09:33:40.686Z,174.38
2018-12-29T09:34:40.684Z,174.38
2018-12-29T09:35:40.655Z,180.00
2018-12-29T09:36:40.704Z,185.62
2018-12-29T09:37:40.641Z,185.62
2018-12-29T09:38:40.643Z,196.88
2018-12-29T09:39:40.633Z,202.50
2018-12-29T09:40:40.605Z,213.75
2018-12-29T09:41:40.635Z,219.38
2018-12-29T09:42:40.600Z,219.38
2018-12-29T09:43:40.579Z,219.38
2018-12-29T09:44:40.559Z,219.38
2018-12-29T09:45:40.588Z,213.75
2018-12-29T09:46:40.575Z,213.75
2018-12-29T09:47:40.553Z,213.75
2018-12-29T09:48:40.516Z,219.38
2018-12-29T09:49:40.555Z,219.38
2018-12-29T09:50:40.495Z,225.00
2018-12-29T09:51:40.500Z,230.62
2018-12-29T09:52:40.514Z,236.25
2018-12-29T09:53:40.503Z,241.88
2018-12-29T09:54:40.466Z,253.12
2018-12-29T09:55:40.444Z,264.38
2018-12-29T09:56:40.476Z,258.75
2018-12-29T09:57:40.434Z,270.00
2018-12-29T09:58:40.441Z,270.00
2018-12-29T09:59:40.399Z,258.75
2018-12-29T10:00:40.477Z,253.12
2018-12-29T10:01:40.399Z,241.88
2018-12-29T10:02:40.366Z,230.62
2018-12-29T10:03:40.361Z,230.62
2018-12-29T10:04:40.349Z,236.25
2018-12-29T10:05:40.336Z,241.88
2018-12-29T10:06:40.414Z,247.50
2018-12-29T10:07:40.316Z,258.75
2018-12-29T10:08:40.319Z,258.75
2018-12-29T10:09:40.314Z,270.00
2018-12-29T10:10:40.310Z,281.25
2018-12-29T10:11:40.276Z,292.50
2018-12-29T10:12:40.313Z,303.75
2018-12-29T10:13:40.258Z,315.00
2018-12-29T10:14:40.254Z,315.00
2018-12-29T10:15:40.231Z,315.00
2018-12-29T10:16:40.231Z,309.38
2018-12-29T10:17:40.235Z,303.75
2018-12-29T10:18:40.198Z,309.38
2018-12-29T10:19:40.269Z,309.38
2018-12-29T10:20:40.176Z,309.38
2018-12-29T10:21:40.193Z,309.38
2018-12-29T10:22:40.179Z,309.38
2018-12-29T10:23:40.147Z,309.38
2018-12-29T10:24:40.156Z,309.38
2018-12-29T10:25:40.124Z,309.38
2018-12-29T10:26:40.122Z,309.38
2018-12-29T10:27:40.120Z,315.00
2018-12-29T10:28:40.122Z,315.00
2018-12-29T10:29:40.089Z,320.62
2018-12-29T10:30:40.114Z,343.12
2018-12-29T10:31:40.070Z,360.00
2018-12-29T10:32:40.088Z,382.50
2018-12-29T10:33:40.040Z,393.75
2018-12-29T10:34:40.033Z,399.38
2018-12-29T10:35:40.019Z,405.00
2018-12-29T10:36:40.005Z,405.00
2018-12-29T10:37:40.015Z,399.38
2018-12-29T10:38:40.026Z,393.75
2018-12-29T10:39:39.981Z,382.50
2018-12-29T10:40:39.964Z,365.62
2018-12-29T10:41:39.950Z,360.00
2018-12-29T10:42:39.987Z,354.38
2018-12-29T10:43:39.935Z,354.38
2018-12-29T10:44:39.921Z,354.38
2018-12-29T10:45:39.954Z,348.75
2018-12-29T10:46:39.897Z,348.75
2018-12-29T10:47:39.910Z,354.38
2018-12-29T10:48:39.906Z,360.00
2018-12-29T10:49:39.873Z,371.25
2018-12-29T10:50:39.868Z,371.25
2018-12-29T10:51:39.877Z,388.12
2018-12-29T10:52:39.865Z,399.38
2018-12-29T10:53:39.832Z,410.62
2018-12-29T10:54:39.816Z,410.62
2018-12-29T10:55:39.806Z,410.62
2018-12-29T10:56:39.789Z,416.25
2018-12-29T10:57:39.830Z,427.50
2018-12-29T10:58:39.798Z,433.12
2018-12-29T10:59:39.759Z,438.75
2018-12-29T11:00:39.748Z,444.38
2018-12-29T11:01:39.744Z,444.38
2018-12-29T11:02:39.745Z,450.00
2018-12-29T11:03:39.716Z,455.62
2018-12-29T11:04:39.815Z,450.00
2018-12-29T11:05:39.694Z,444.38
2018-12-29T11:06:39.722Z,444.38
2018-12-29T11:07:39.708Z,450.00
2018-12-29T11:08:39.669Z,461.25
2018-12-29T11:09:39.649Z,461.25
2018-12-29T11:10:39.639Z,450.00
2018-12-29T11:11:39.643Z,444.38
2018-12-29T11:12:39.629Z,438.75
2018-12-29T11:13:39.606Z,444.38
2018-12-29T11:14:39.702Z,450.00
2018-12-29T11:15:39.589Z,450.00
2018-12-29T11:16:39.581Z,444.38
2018-12-29T11:17:42.264Z,433.12
2018-12-29T11:18:39.575Z,433.12
2018-12-29T11:19:39.583Z,433.12
2018-12-29T11:20:39.550Z,444.38
2018-12-29T11:21:39.548Z,461.25
2018-12-29T11:22:39.523Z,466.88
2018-12-29T11:23:39.497Z,461.25
2018-12-29T11:24:39.489Z,455.62
2018-12-29T11:25:39.513Z,438.75
2018-12-29T11:26:39.467Z,433.12
2018-12-29T11:27:39.481Z,433.12
2018-12-29T11:28:39.445Z,427.50
2018-12-29T11:29:39.435Z,421.88
2018-12-29T11:30:39.451Z,421.88
2018-12-29T11:31:39.459Z,416.25
2018-12-29T11:32:39.430Z,416.25
2018-12-29T11:33:39.408Z,416.25
2018-12-29T11:34:39.395Z,416.25
2018-12-29T11:35:39.403Z,410.62
2018-12-29T11:36:39.358Z,410.62
2018-12-29T11:37:39.359Z,416.25
2018-12-29T11:38:39.350Z,427.50
2018-12-29T11:39:39.327Z,444.38
2018-12-29T11:40:39.335Z,461.25
2018-12-29T11:41:39.315Z,466.88
2018-12-29T11:42:39.300Z,466.88
2018-12-29T11:43:39.301Z,466.88
2018-12-29T11:44:39.277Z,466.88
2018-12-29T11:45:39.267Z,472.50
2018-12-29T11:46:39.258Z,472.50
2018-12-29T11:47:39.279Z,472.50
2018-12-29T11:48:39.250Z,472.50
2018-12-29T11:49:39.236Z,466.88
2018-12-29T11:50:39.214Z,472.50
2018-12-29T11:51:39.196Z,483.75
2018-12-29T11:52:39.189Z,489.38
2018-12-29T11:53:39.205Z,495.00
2018-12-29T11:54:39.175Z,500.62
2018-12-29T11:55:39.155Z,500.62
2018-12-29T11:56:39.148Z,506.25
2018-12-29T11:57:39.133Z,511.88
2018-12-29T11:58:39.147Z,517.50
2018-12-29T11:59:39.111Z,517.50
2018-12-29T12:00:39.127Z,528.75
2018-12-29T12:01:39.104Z,528.75
2018-12-29T12:02:39.078Z,534.38
2018-12-29T12:03:39.082Z,545.62
2018-12-29T12:04:39.060Z,551.25
2018-12-29T12:05:39.046Z,551.25
2018-12-29T12:06:39.048Z,545.62
2018-12-29T12:07:39.038Z,540.00
2018-12-29T12:08:39.033Z,540.00
2018-12-29T12:09:39.004Z,534.38
2018-12-29T12:10:39.003Z,517.50
2018-12-29T12:11:38.981Z,500.62
2018-12-29T12:12:38.996Z,489.38
2018-12-29T12:13:38.976Z,478.12
2018-12-29T12:14:38.950Z,466.88
2018-12-29T12:15:38.949Z,461.25
2018-12-29T12:16:38.930Z,455.62
2018-12-29T12:17:38.940Z,450.00
2018-12-29T12:18:38.920Z,444.38
2018-12-29T12:19:38.924Z,438.75
2018-12-29T12:20:38.883Z,433.12
2018-12-29T12:21:38.877Z,427.50
2018-12-29T12:22:38.864Z,421.88
2018-12-29T12:23:38.866Z,421.88
2018-12-29T12:24:38.842Z,421.88
2018-12-29T12:25:38.837Z,416.25
2018-12-29T12:26:38.819Z,416.25
2018-12-29T12:27:38.811Z,410.62
2018-12-29T12:28:38.814Z,399.38
2018-12-29T12:29:38.787Z,399.38
2018-12-29T12:30:38.795Z,388.12
2018-12-29T12:31:38.952Z,382.50
2018-12-29T12:32:38.757Z,371.25
2018-12-29T12:33:38.758Z,360.00
2018-12-29T12:34:38.734Z,348.75
2018-12-29T12:35:38.724Z,331.88
2018-12-29T12:36:38.711Z,320.62
2018-12-29T12:37:38.699Z,315.00
2018-12-29T12:38:38.748Z,320.62
2018-12-29T12:39:38.680Z,320.62
2018-12-29T12:40:38.668Z,320.62
2018-12-29T12:41:38.660Z,320.62
2018-12-29T12:42:38.647Z,320.62
2018-12-29T12:43:38.662Z,320.62
2018-12-29T12:44:38.641Z,326.25
2018-12-29T12:45:38.615Z,331.88
2018-12-29T12:46:38.605Z,337.50
2018-12-29T12:47:38.612Z,326.25
2018-12-29T12:48:38.600Z,320.62
2018-12-29T12:49:38.572Z,320.62
2018-12-29T12:50:38.569Z,326.25
2018-12-29T12:51:38.553Z,326.25
2018-12-29T12:52:38.557Z,326.25
2018-12-29T12:53:38.558Z,326.25
2018-12-29T12:54:38.516Z,331.88
2018-12-29T12:55:38.544Z,331.88
2018-12-29T12:56:38.498Z,331.88
2018-12-29T12:57:38.484Z,337.50
2018-12-29T12:58:38.490Z,343.12
2018-12-29T12:59:38.463Z,348.75